Terminal Aerodrome Forecast
Issued by NWS

Home | Current Version | Previous Version | Text Only | Print | Product List | Glossary On
Versions: 1 2 3 4 5 6 7 8 9 10 11 12 13 14
000
FTUS43 KGRR 250530
TAFMKG
TAF
KMKG 250530Z 2506/2606 06009KT 5SM BR VCSH OVC015
     FM250900 06009KT 3SM -RA BR OVC008
     FM251400 08012G20KT 2SM -RA BR OVC004=

USA.gov is the U.S. government's official web portal to all federal, state and local government web resources and services.